createdAt,value
2022-12-09T00:01:50.566Z,46.97
2022-12-09T00:04:18.672Z,52.40
2022-12-09T00:06:46.699Z,47.80
2022-12-09T00:09:16.271Z,41.03
2022-12-09T00:11:44.759Z,41.80
2022-12-09T00:14:13.041Z,48.53
2022-12-09T00:16:42.409Z,48.60
2022-12-09T00:19:11.027Z,41.50
2022-12-09T00:21:39.036Z,46.47
2022-12-09T00:24:08.972Z,39.20
2022-12-09T00:26:37.111Z,41.63
2022-12-09T00:29:05.080Z,49.90
2022-12-09T00:31:35.663Z,50.13
2022-12-09T00:34:06.886Z,46.83
2022-12-09T00:36:35.844Z,43.13
2022-12-09T00:39:06.642Z,47.27
2022-12-09T00:41:34.602Z,51.93
2022-12-09T00:44:02.825Z,48.63
2022-12-09T00:46:31.039Z,49.70
2022-12-09T00:48:59.313Z,44.27
2022-12-09T00:51:29.020Z,46.37
2022-12-09T00:53:57.186Z,55.70
2022-12-09T00:56:28.321Z,49.80
2022-12-09T00:58:57.059Z,51.57
2022-12-09T01:01:25.929Z,41.53
2022-12-09T01:03:54.433Z,39.63
2022-12-09T01:06:25.159Z,54.90
2022-12-09T01:08:55.215Z,44.97
2022-12-09T01:11:25.931Z,43.87
2022-12-09T01:13:54.685Z,43.67
2022-12-09T01:16:25.968Z,51.50
2022-12-09T01:18:57.549Z,45.13
2022-12-09T01:21:25.580Z,42.77
2022-12-09T01:23:54.848Z,45.77
2022-12-09T01:26:23.167Z,50.63
2022-12-09T01:28:52.915Z,42.87
2022-12-09T01:31:24.907Z,44.60
2022-12-09T01:33:54.799Z,46.13
2022-12-09T01:36:25.105Z,47.40
2022-12-09T01:38:54.875Z,47.37
2022-12-09T01:41:24.126Z,49.50
2022-12-09T01:44:08.768Z,51.57
2022-12-09T11:20:37.714Z,31.37
2022-12-09T11:23:14.765Z,29.77
2022-12-09T11:25:54.801Z,26.43
2022-12-09T11:28:29.310Z,29.40
2022-12-09T11:31:28.211Z,31.77
2022-12-09T11:33:56.971Z,28.90
2022-12-09T11:36:30.997Z,31.67
2022-12-09T11:39:11.777Z,31.57
2022-12-09T11:42:02.812Z,32.63
2022-12-09T11:44:33.212Z,28.33
2022-12-09T11:47:03.693Z,31.60
2022-12-09T11:49:35.632Z,31.67
2022-12-09T11:52:21.113Z,30.00
2022-12-09T11:54:54.113Z,29.73
2022-12-09T11:57:30.104Z,29.87
2022-12-09T12:00:02.597Z,32.63
2022-12-09T12:02:37.697Z,30.67
2022-12-09T12:05:21.686Z,32.40
2022-12-09T12:08:01.868Z,27.40
2022-12-09T12:10:32.557Z,24.97
2022-12-09T12:13:06.757Z,28.60
2022-12-09T12:15:44.770Z,26.90
2022-12-09T12:18:19.024Z,26.83
2022-12-09T12:21:03.730Z,24.70
2022-12-09T12:23:50.385Z,25.10
2022-12-09T12:26:22.885Z,25.17
2022-12-09T12:29:07.815Z,27.00
2022-12-09T12:31:54.920Z,25.47
2022-12-09T12:34:38.854Z,26.53
2022-12-09T12:37:21.292Z,23.30
2022-12-09T12:40:01.376Z,23.87
2022-12-09T12:42:39.746Z,33.83
2022-12-09T12:45:35.103Z,27.83
2022-12-09T12:48:07.268Z,24.37
2022-12-09T12:51:05.337Z,25.03
2022-12-09T12:53:43.037Z,25.00
2022-12-09T12:56:18.114Z,28.00
2022-12-09T12:59:02.246Z,34.50
2022-12-09T13:01:34.328Z,29.30
2022-12-09T13:04:12.673Z,24.80
2022-12-09T13:06:46.748Z,30.20
2022-12-09T13:09:21.080Z,30.50
2022-12-09T13:12:15.111Z,29.07
2022-12-09T13:14:52.534Z,26.67
2022-12-09T13:17:22.990Z,32.20
2022-12-09T13:19:54.198Z,29.80
2022-12-09T13:22:25.466Z,30.83
2022-12-09T13:25:01.921Z,31.67
2022-12-09T13:27:41.801Z,32.87
2022-12-09T13:30:32.412Z,31.25
2022-12-09T13:33:16.776Z,31.03
2022-12-09T13:35:54.850Z,33.07
2022-12-09T13:38:28.595Z,32.03
2022-12-09T13:40:56.562Z,29.33
2022-12-09T13:43:28.408Z,30.67
2022-12-09T13:45:58.737Z,33.37
2022-12-09T13:48:48.568Z,40.63
2022-12-09T13:51:18.331Z,28.00
2022-12-09T13:53:51.135Z,36.03
2022-12-09T13:56:30.599Z,31.43
2022-12-09T13:59:40.128Z,32.07
2022-12-09T14:02:20.008Z,39.17
2022-12-09T14:04:56.245Z,36.27
2022-12-09T14:07:32.130Z,35.83
2022-12-09T14:10:01.456Z,29.43
2022-12-09T14:13:04.883Z,29.37
2022-12-09T14:15:39.575Z,36.80
2022-12-09T14:18:29.576Z,33.23
2022-12-09T14:21:27.999Z,36.20
2022-12-09T14:24:35.289Z,35.38
2022-12-09T14:27:12.338Z,36.73
2022-12-09T14:29:49.086Z,28.95
2022-12-09T14:32:30.204Z,34.17
2022-12-09T14:35:17.093Z,32.47
2022-12-09T14:38:18.490Z,32.73
2022-12-09T14:40:57.828Z,32.57
2022-12-09T14:43:37.816Z,28.00
2022-12-09T14:46:08.743Z,30.02
2022-12-09T14:48:40.916Z,32.47
2022-12-09T14:51:17.448Z,30.90
2022-12-09T14:53:49.364Z,30.87
2022-12-09T14:56:20.538Z,28.47
2022-12-09T14:58:50.292Z,30.63
2022-12-09T15:01:19.245Z,33.13
2022-12-09T15:03:55.054Z,30.50
2022-12-09T15:06:26.733Z,37.37
2022-12-09T15:08:59.116Z,31.63
2022-12-09T15:11:31.630Z,30.80
2022-12-09T15:14:23.573Z,31.00
2022-12-09T15:16:52.337Z,35.57
2022-12-09T15:19:58.168Z,30.40
2022-12-09T15:22:21.545Z,29.97
2022-12-09T15:24:51.118Z,33.13
2022-12-09T15:27:21.957Z,35.73
2022-12-09T15:29:50.617Z,34.00
2022-12-09T15:32:26.394Z,33.53
2022-12-09T15:34:55.997Z,26.20
2022-12-09T15:37:27.538Z,35.93
2022-12-09T15:40:01.478Z,36.80
2022-12-09T15:42:33.403Z,35.97
2022-12-09T15:45:09.182Z,29.77
2022-12-09T15:47:41.194Z,34.95
2022-12-09T15:50:18.422Z,34.00
2022-12-09T15:52:51.323Z,32.30
2022-12-09T15:55:21.631Z,39.30
2022-12-09T15:57:52.366Z,35.13
2022-12-09T16:00:20.932Z,34.50
2022-12-09T16:02:50.752Z,30.60
2022-12-09T16:05:26.045Z,33.27
2022-12-09T16:07:56.624Z,37.80
2022-12-09T16:10:27.133Z,41.13
2022-12-09T16:13:09.588Z,38.03
2022-12-09T16:15:45.981Z,29.23
2022-12-09T16:18:18.375Z,34.00
2022-12-09T16:21:01.919Z,39.33
2022-12-09T16:23:29.969Z,33.63
2022-12-09T16:26:06.700Z,34.27
2022-12-09T16:28:35.164Z,34.57
2022-12-09T16:31:17.766Z,36.40
2022-12-09T16:33:49.280Z,40.47
2022-12-09T16:36:21.738Z,33.53
2022-12-09T16:39:26.284Z,34.53
2022-12-09T16:42:02.949Z,29.87
2022-12-09T16:44:34.814Z,38.57
2022-12-09T16:47:14.507Z,36.07
2022-12-09T16:49:45.510Z,32.28
2022-12-09T16:52:17.322Z,36.28
2022-12-09T16:54:47.162Z,45.77
2022-12-09T16:57:21.427Z,32.50
2022-12-09T16:59:49.599Z,43.67
2022-12-09T17:02:23.426Z,38.22
2022-12-09T17:04:52.729Z,38.58
2022-12-09T17:07:21.986Z,35.27
2022-12-09T17:09:50.250Z,37.67
2022-12-09T17:12:18.261Z,35.03
2022-12-09T17:14:46.356Z,38.57
2022-12-09T17:17:14.388Z,37.63
2022-12-09T17:19:42.951Z,33.80
2022-12-09T17:22:11.089Z,35.17
2022-12-09T17:24:40.862Z,33.50
2022-12-09T17:27:08.841Z,39.20
2022-12-09T17:29:37.196Z,33.00
2022-12-09T17:32:05.824Z,36.27
2022-12-09T17:34:34.188Z,37.87
2022-12-09T17:37:02.271Z,42.70
2022-12-09T17:39:30.196Z,36.50
2022-12-09T17:41:59.625Z,47.67
2022-12-09T17:44:27.503Z,42.13
2022-12-09T17:47:02.041Z,40.57
2022-12-09T17:49:33.657Z,44.87
2022-12-09T17:52:07.816Z,33.23
2022-12-09T17:54:35.936Z,40.40
2022-12-09T17:57:05.278Z,40.83
2022-12-09T17:59:33.225Z,35.70
2022-12-09T18:02:03.594Z,46.97
2022-12-09T18:04:32.231Z,39.77
2022-12-09T18:07:00.266Z,43.85
2022-12-09T18:09:28.117Z,43.28
2022-12-09T18:11:56.201Z,37.67
2022-12-09T18:14:25.643Z,49.50
2022-12-09T18:16:53.676Z,40.90
2022-12-09T18:19:23.691Z,47.57
2022-12-09T18:21:52.006Z,46.17
2022-12-09T18:24:20.045Z,40.73
2022-12-09T18:26:48.914Z,44.40
2022-12-09T18:29:16.939Z,43.30
2022-12-09T18:31:49.581Z,43.63
2022-12-09T18:34:20.954Z,47.70
2022-12-09T18:36:48.865Z,40.20
2022-12-09T18:39:16.990Z,38.90
2022-12-09T18:41:46.008Z,42.03
2022-12-09T18:44:15.441Z,37.90
2022-12-09T18:46:47.750Z,37.20
2022-12-09T18:49:18.225Z,44.57
2022-12-09T18:51:47.682Z,33.50
2022-12-09T18:54:17.458Z,44.90
2022-12-09T18:56:45.735Z,42.87
2022-12-09T18:59:14.108Z,34.43
2022-12-09T19:01:43.874Z,39.17
2022-12-09T19:04:15.817Z,40.00
2022-12-09T19:06:45.956Z,43.47
2022-12-09T19:09:16.422Z,43.10
2022-12-09T19:11:46.047Z,42.37
2022-12-09T19:14:15.039Z,44.50
2022-12-09T19:16:43.765Z,36.07
2022-12-09T19:19:14.214Z,53.27
2022-12-09T19:21:42.633Z,43.10
2022-12-09T19:24:15.377Z,47.33
2022-12-09T19:26:43.812Z,42.40
2022-12-09T19:29:13.144Z,35.77
2022-12-09T19:31:42.915Z,42.90
2022-12-09T19:34:15.073Z,41.53
2022-12-09T19:36:44.178Z,43.33
2022-12-09T19:39:13.884Z,41.67
2022-12-09T19:41:43.284Z,48.33
2022-12-09T19:44:15.302Z,40.40
2022-12-09T19:46:46.897Z,40.57
2022-12-09T19:49:23.260Z,40.90
2022-12-09T19:54:43.561Z,39.53
2022-12-09T19:57:11.751Z,39.67
2022-12-09T19:59:39.797Z,37.70
2022-12-09T20:02:11.869Z,37.97
2022-12-09T20:04:49.891Z,44.03
2022-12-09T20:07:18.340Z,45.07
2022-12-09T20:09:46.740Z,39.07
2022-12-09T20:12:14.977Z,48.40
2022-12-09T20:14:43.114Z,37.40
2022-12-09T20:17:11.195Z,44.07
2022-12-09T20:19:40.547Z,46.67
2022-12-09T20:22:08.658Z,39.17
2022-12-09T20:24:36.595Z,45.27
2022-12-09T20:27:04.574Z,48.27
2022-12-09T20:29:37.505Z,50.90
2022-12-09T20:32:06.958Z,39.30
2022-12-09T20:34:35.139Z,41.63
2022-12-09T20:37:04.691Z,39.13
2022-12-09T20:39:32.775Z,42.80
2022-12-09T20:42:01.051Z,39.25
2022-12-09T20:44:29.086Z,36.33
2022-12-09T20:46:57.732Z,41.20
2022-12-09T20:49:27.598Z,39.43
2022-12-09T20:51:55.855Z,33.67
2022-12-09T20:54:25.199Z,38.70
2022-12-09T20:56:54.858Z,38.87
2022-12-09T20:59:22.894Z,42.83
2022-12-09T21:01:50.781Z,39.33
2022-12-09T21:04:19.273Z,42.70
2022-12-09T21:06:47.607Z,38.17
2022-12-09T21:09:20.002Z,42.17
2022-12-09T21:11:51.033Z,37.63
2022-12-09T21:14:19.215Z,51.00
2022-12-09T21:16:50.714Z,46.77
2022-12-09T21:19:25.054Z,43.20
2022-12-09T21:21:54.575Z,43.17
2022-12-09T21:24:24.142Z,37.50
2022-12-09T21:26:56.181Z,41.60
2022-12-09T21:29:31.194Z,41.20
2022-12-09T21:31:59.718Z,43.83
2022-12-09T21:34:27.664Z,42.50
2022-12-09T21:36:55.533Z,41.60
2022-12-09T21:39:23.581Z,39.43
2022-12-09T21:41:53.419Z,40.57
2022-12-09T21:44:22.582Z,39.07
2022-12-09T21:46:51.211Z,44.20
2022-12-09T21:49:19.140Z,42.83
2022-12-09T21:51:47.606Z,44.40
2022-12-09T21:54:15.600Z,46.80
2022-12-09T21:56:43.530Z,40.40
2022-12-09T21:59:14.427Z,46.73
2022-12-09T22:01:43.991Z,49.03
2022-12-09T22:04:15.103Z,49.83
2022-12-09T22:06:46.124Z,47.67
2022-12-09T22:09:14.499Z,43.60
2022-12-09T22:11:42.431Z,47.43
2022-12-09T22:14:13.245Z,49.40
2022-12-09T22:16:43.628Z,55.17
2022-12-09T22:19:15.335Z,39.90
2022-12-09T22:21:43.241Z,46.47
2022-12-09T22:24:12.991Z,47.23
2022-12-09T22:26:43.602Z,40.53
2022-12-09T22:29:14.701Z,40.87
2022-12-09T22:31:43.969Z,54.47
2022-12-09T22:34:14.690Z,45.10
2022-12-09T22:36:42.958Z,43.70
2022-12-09T22:39:14.170Z,45.90
2022-12-09T22:41:43.557Z,42.53
2022-12-09T22:44:15.290Z,42.00
2022-12-09T22:46:43.727Z,47.07
2022-12-09T22:49:13.394Z,47.60
2022-12-09T22:51:41.903Z,49.90
2022-12-09T22:54:11.067Z,43.83
2022-12-09T22:56:41.162Z,46.50
2022-12-09T22:59:09.315Z,45.57
2022-12-09T23:01:38.921Z,42.90
2022-12-09T23:04:08.629Z,48.43
2022-12-09T23:06:38.354Z,41.73
2022-12-09T23:09:06.593Z,46.83
2022-12-09T23:11:34.746Z,52.97
2022-12-09T23:14:02.752Z,47.90
2022-12-09T23:16:31.304Z,39.60
2022-12-09T23:19:00.853Z,41.00
2022-12-09T23:21:30.516Z,45.17
2022-12-09T23:24:00.669Z,38.70
2022-12-09T23:26:31.588Z,44.20
2022-12-09T23:29:01.447Z,43.93
2022-12-09T23:31:32.627Z,44.63
2022-12-09T23:34:03.601Z,49.08
2022-12-09T23:36:33.310Z,50.53
2022-12-09T23:39:02.369Z,44.17
2022-12-09T23:41:31.197Z,50.40
2022-12-09T23:43:59.480Z,45.90
2022-12-09T23:46:31.105Z,41.13
2022-12-09T23:48:59.241Z,40.80
2022-12-09T23:51:30.436Z,44.77
2022-12-09T23:53:59.667Z,49.20
2022-12-09T23:56:30.096Z,40.13
2022-12-09T23:58:59.634Z,42.13
